createdAt,value
2019-02-21T00:00:41.028Z,10.15
2019-02-21T00:01:46.781Z,10.00
2019-02-21T00:02:51.520Z,10.43
2019-02-21T00:03:56.368Z,9.63
2019-02-21T00:05:01.265Z,10.35
2019-02-21T00:06:06.126Z,10.35
2019-02-21T00:07:10.869Z,10.32
2019-02-21T00:08:15.757Z,10.68
2019-02-21T00:09:20.660Z,10.50
2019-02-21T00:10:28.348Z,10.82
2019-02-21T00:11:33.321Z,10.85
2019-02-21T00:12:38.373Z,10.43
2019-02-21T00:13:43.486Z,10.95
2019-02-21T00:14:48.378Z,11.28
2019-02-21T00:15:53.676Z,10.88
2019-02-21T00:16:58.721Z,10.10
2019-02-21T00:18:03.603Z,12.23
2019-02-21T00:19:08.432Z,11.00
2019-02-21T00:20:13.468Z,10.28
2019-02-21T00:21:18.563Z,10.58
2019-02-21T00:22:42.273Z,11.78
2019-02-21T00:23:47.490Z,9.83
2019-02-21T00:24:52.285Z,10.55
2019-02-21T00:25:57.140Z,11.45
2019-02-21T00:27:02.012Z,12.15
2019-02-21T00:28:06.960Z,10.65
2019-02-21T00:29:11.689Z,11.38
2019-02-21T00:30:16.598Z,11.25
2019-02-21T00:31:21.637Z,10.80
2019-02-21T00:32:26.485Z,10.98
2019-02-21T00:33:31.333Z,11.48
2019-02-21T00:34:36.412Z,11.85
2019-02-21T00:35:41.520Z,12.00
2019-02-21T00:36:46.563Z,11.00
2019-02-21T00:37:51.815Z,11.30
2019-02-21T00:38:56.752Z,11.05
2019-02-21T00:40:01.926Z,11.60
2019-02-21T00:41:07.004Z,12.07
2019-02-21T00:42:11.942Z,11.78
2019-02-21T00:43:17.009Z,11.55
2019-02-21T00:44:21.948Z,10.95
2019-02-21T00:45:26.941Z,11.43
2019-02-21T00:46:32.008Z,12.13
2019-02-21T00:47:37.059Z,11.60
2019-02-21T00:48:42.504Z,12.13
2019-02-21T00:49:47.400Z,12.20
2019-02-21T00:50:52.536Z,12.10
2019-02-21T00:51:57.768Z,11.45
2019-02-21T00:53:03.886Z,12.75
2019-02-21T00:54:08.889Z,11.88
2019-02-21T00:55:14.089Z,11.33
2019-02-21T00:56:19.159Z,12.20
2019-02-21T00:57:23.911Z,12.18
2019-02-21T00:58:28.821Z,12.20
2019-02-21T00:59:33.712Z,12.35
2019-02-21T01:00:45.951Z,11.97
2019-02-21T01:01:45.141Z,12.55
2019-02-21T01:02:50.216Z,11.73
2019-02-21T01:03:55.483Z,12.65
2019-02-21T01:05:00.469Z,12.63
2019-02-21T01:06:05.726Z,12.13
2019-02-21T01:07:10.745Z,13.32
2019-02-21T01:08:15.792Z,11.97
2019-02-21T01:09:20.764Z,12.13
2019-02-21T01:10:25.899Z,11.30
2019-02-21T01:11:30.858Z,12.85
2019-02-21T01:12:35.761Z,11.70
2019-02-21T01:13:40.709Z,11.15
2019-02-21T01:14:45.613Z,11.30
2019-02-21T01:15:50.491Z,11.85
2019-02-21T01:16:55.236Z,11.68
2019-02-21T01:18:00.102Z,11.03
2019-02-21T01:19:05.001Z,11.57
2019-02-21T01:20:09.876Z,11.68
2019-02-21T01:21:14.764Z,11.65
2019-02-21T01:22:19.721Z,12.00
2019-02-21T01:23:24.497Z,11.63
2019-02-21T01:24:29.269Z,12.85
2019-02-21T01:25:34.080Z,11.40
2019-02-21T01:26:38.867Z,12.28
2019-02-21T01:27:43.774Z,13.13
2019-02-21T01:28:49.069Z,12.05
2019-02-21T01:29:53.893Z,12.75
2019-02-21T01:30:58.765Z,12.07
2019-02-21T01:32:03.745Z,11.33
2019-02-21T01:33:08.664Z,12.88
2019-02-21T01:34:13.760Z,12.70
2019-02-21T01:35:18.971Z,12.85
2019-02-21T01:36:23.723Z,12.40
2019-02-21T01:37:28.584Z,12.80
2019-02-21T01:38:33.518Z,12.78
2019-02-21T01:39:38.563Z,13.00
2019-02-21T01:40:43.492Z,12.80
2019-02-21T01:41:48.404Z,12.75
2019-02-21T01:42:53.373Z,13.32
2019-02-21T01:43:58.326Z,12.93
2019-02-21T01:45:03.221Z,12.33
2019-02-21T01:46:08.184Z,12.47
2019-02-21T01:47:13.087Z,14.23
2019-02-21T01:48:18.041Z,12.15
2019-02-21T01:49:22.901Z,12.05
2019-02-21T01:50:27.709Z,13.10
2019-02-21T01:51:32.724Z,13.28
2019-02-21T01:52:37.547Z,12.50
2019-02-21T01:53:42.585Z,13.53
2019-02-21T01:54:47.342Z,12.60
2019-02-21T01:55:52.225Z,12.45
2019-02-21T01:56:57.129Z,13.45
2019-02-21T01:58:02.065Z,13.98
2019-02-21T01:59:08.044Z,13.40
2019-02-21T02:00:12.900Z,14.00
2019-02-21T02:01:17.844Z,13.15
2019-02-21T02:02:22.701Z,13.00
2019-02-21T02:03:27.736Z,14.23
2019-02-21T02:04:32.498Z,13.25
2019-02-21T02:05:37.593Z,13.32
2019-02-21T02:06:42.504Z,13.70
2019-02-21T02:07:47.561Z,13.72
2019-02-21T02:08:52.424Z,14.33
2019-02-21T02:09:57.356Z,13.90
2019-02-21T02:11:02.328Z,13.72
2019-02-21T02:12:07.596Z,13.35
2019-02-21T02:13:23.779Z,12.68
2019-02-21T02:14:18.857Z,12.82
2019-02-21T02:15:23.712Z,13.35
2019-02-21T02:16:28.573Z,13.40
2019-02-21T02:17:33.561Z,13.50
2019-02-21T02:18:38.423Z,13.45
2019-02-21T02:19:43.454Z,13.08
2019-02-21T02:20:48.224Z,13.90
2019-02-21T02:21:52.999Z,12.75
2019-02-21T02:22:57.874Z,12.95
2019-02-21T02:24:02.903Z,13.55
2019-02-21T02:25:07.767Z,11.95
2019-02-21T02:26:12.589Z,11.48
2019-02-21T02:27:17.486Z,13.20
2019-02-21T02:28:22.472Z,12.58
2019-02-21T02:29:27.218Z,13.60
2019-02-21T02:30:32.138Z,13.03
2019-02-21T02:31:37.160Z,13.90
2019-02-21T02:32:41.981Z,13.10
2019-02-21T02:33:47.026Z,12.75
2019-02-21T02:34:51.915Z,13.75
2019-02-21T02:35:56.869Z,14.28
2019-02-21T02:37:01.613Z,13.48
2019-02-21T02:38:06.504Z,13.72
2019-02-21T02:39:11.684Z,13.22
2019-02-21T02:40:16.637Z,12.93
2019-02-21T02:41:21.432Z,13.30
2019-02-21T02:42:26.405Z,12.95
2019-02-21T02:43:31.392Z,13.15
2019-02-21T02:44:36.340Z,13.98
2019-02-21T02:45:41.734Z,12.70
2019-02-21T02:46:46.695Z,14.00
2019-02-21T02:47:51.605Z,13.35
2019-02-21T02:48:56.403Z,12.47
2019-02-21T02:50:01.223Z,12.35
2019-02-21T02:51:06.409Z,12.73
2019-02-21T02:52:11.382Z,13.10
2019-02-21T02:53:16.162Z,13.18
2019-02-21T02:54:21.099Z,12.58
2019-02-21T02:55:25.985Z,13.48
2019-02-21T02:56:30.892Z,13.48
2019-02-21T02:57:35.667Z,13.70
2019-02-21T02:58:40.556Z,14.18
2019-02-21T02:59:45.432Z,13.55
2019-02-21T03:00:50.338Z,12.85
2019-02-21T03:01:55.218Z,13.88
2019-02-21T03:03:00.144Z,13.18
2019-02-21T03:04:05.098Z,12.93
2019-02-21T03:05:09.848Z,12.88
2019-02-21T03:06:14.860Z,14.03
2019-02-21T03:07:19.804Z,13.68
2019-02-21T03:08:24.881Z,13.72
2019-02-21T03:09:29.666Z,13.50
2019-02-21T03:10:34.672Z,12.85
2019-02-21T03:11:39.717Z,13.90
2019-02-21T03:12:44.798Z,13.80
2019-02-21T03:13:49.556Z,13.28
2019-02-21T03:14:54.452Z,14.20
2019-02-21T03:15:59.377Z,14.60
2019-02-21T03:17:04.226Z,13.28
2019-02-21T03:18:08.968Z,13.62
2019-02-21T03:19:13.746Z,13.90
2019-02-21T03:20:18.630Z,14.98
2019-02-21T03:21:23.734Z,14.85
2019-02-21T03:22:28.432Z,16.02
2019-02-21T03:23:33.458Z,15.40
2019-02-21T03:24:38.339Z,14.80
2019-02-21T03:25:43.131Z,17.70
2019-02-21T03:26:47.931Z,18.30
2019-02-21T03:27:52.653Z,18.70
2019-02-21T03:28:57.545Z,17.25
2019-02-21T03:30:02.334Z,15.35
2019-02-21T03:31:07.080Z,15.83
2019-02-21T03:32:12.095Z,17.50
2019-02-21T03:33:16.953Z,15.58
2019-02-21T03:34:21.833Z,17.48
2019-02-21T03:35:26.666Z,16.85
2019-02-21T03:36:31.471Z,17.45
2019-02-21T03:37:36.390Z,17.82
2019-02-21T03:38:41.114Z,17.35
2019-02-21T03:39:45.852Z,18.02
2019-02-21T03:40:50.607Z,17.98
2019-02-21T03:41:55.546Z,17.70
2019-02-21T03:43:00.288Z,18.20
2019-02-21T03:44:05.086Z,17.65
2019-02-21T03:45:11.016Z,19.55
2019-02-21T03:46:15.936Z,17.80
2019-02-21T03:47:20.697Z,18.07
2019-02-21T03:48:25.436Z,17.17
2019-02-21T03:49:30.182Z,16.90
2019-02-21T03:50:35.064Z,18.25
2019-02-21T03:51:40.004Z,17.75
2019-02-21T03:52:44.728Z,16.52
2019-02-21T03:53:49.816Z,17.23
2019-02-21T03:54:54.683Z,17.42
2019-02-21T03:55:59.589Z,17.23
2019-02-21T03:57:04.510Z,18.50
2019-02-21T03:58:09.376Z,18.62
2019-02-21T03:59:14.433Z,18.10
2019-02-21T04:00:19.282Z,17.92
2019-02-21T04:01:24.072Z,17.92
2019-02-21T04:02:28.903Z,18.25
2019-02-21T04:03:33.774Z,18.30
2019-02-21T04:04:38.656Z,17.95
2019-02-21T04:05:43.593Z,17.00
2019-02-21T04:06:48.476Z,17.23
2019-02-21T04:07:56.425Z,17.65
2019-02-21T04:09:01.292Z,16.75
2019-02-21T04:10:06.521Z,18.00
2019-02-21T04:11:11.381Z,17.42
2019-02-21T04:12:16.234Z,17.10
2019-02-21T04:13:21.124Z,16.57
2019-02-21T04:14:26.144Z,16.50
2019-02-21T04:15:31.142Z,17.10
2019-02-21T04:16:36.112Z,16.60
2019-02-21T04:17:41.140Z,17.62
2019-02-21T04:18:45.907Z,17.30
2019-02-21T04:19:50.665Z,17.35
2019-02-21T04:20:55.581Z,17.12
2019-02-21T04:22:00.502Z,17.25
2019-02-21T04:23:05.447Z,17.23
2019-02-21T04:24:10.197Z,18.02
2019-02-21T04:25:15.014Z,19.20
2019-02-21T04:26:19.800Z,18.32
2019-02-21T04:27:24.601Z,17.85
2019-02-21T04:28:29.675Z,17.05
2019-02-21T04:29:35.049Z,18.32
2019-02-21T04:30:39.918Z,18.37
2019-02-21T04:31:44.725Z,17.42
2019-02-21T04:32:49.586Z,17.17
2019-02-21T04:33:54.526Z,18.75
2019-02-21T04:34:59.379Z,18.23
2019-02-21T04:36:04.121Z,17.95
2019-02-21T04:37:09.074Z,18.15
2019-02-21T04:38:14.052Z,18.67
2019-02-21T04:39:18.940Z,18.12
2019-02-21T04:40:23.844Z,18.05
2019-02-21T04:41:28.722Z,20.00
2019-02-21T04:42:33.641Z,20.27
2019-02-21T04:43:38.533Z,18.52
2019-02-21T04:44:43.294Z,18.75
2019-02-21T04:45:48.226Z,19.65
2019-02-21T04:46:53.217Z,19.30
2019-02-21T04:47:58.100Z,18.30
2019-02-21T04:49:02.887Z,20.08
2019-02-21T04:50:08.194Z,18.55
2019-02-21T04:51:13.461Z,20.88
2019-02-21T04:52:18.422Z,19.25
2019-02-21T04:53:23.204Z,19.27
2019-02-21T04:54:28.078Z,20.15
2019-02-21T04:55:32.941Z,20.77
2019-02-21T04:56:38.117Z,20.92
2019-02-21T04:57:42.904Z,21.68
2019-02-21T04:58:47.942Z,23.02
2019-02-21T04:59:52.993Z,21.35
2019-02-21T05:00:57.964Z,23.55
2019-02-21T05:02:02.720Z,22.82
2019-02-21T05:03:07.633Z,23.10
2019-02-21T05:04:12.504Z,23.18
2019-02-21T05:05:17.416Z,23.15
2019-02-21T05:06:22.424Z,22.90
2019-02-21T05:07:27.253Z,21.25
2019-02-21T05:08:32.183Z,22.15
2019-02-21T05:09:37.167Z,22.67
2019-02-21T05:10:42.273Z,20.92
2019-02-21T05:11:48.082Z,21.90
2019-02-21T05:12:53.114Z,21.77
2019-02-21T05:13:58.046Z,21.73
2019-02-21T05:15:03.040Z,20.92
2019-02-21T05:16:07.835Z,20.80
2019-02-21T05:17:12.792Z,21.00
2019-02-21T05:18:17.679Z,20.30
2019-02-21T05:19:22.437Z,22.40
2019-02-21T05:20:27.332Z,21.62
2019-02-21T05:21:32.189Z,21.55
2019-02-21T05:22:37.252Z,23.27
2019-02-21T05:23:42.106Z,23.07
2019-02-21T05:24:47.103Z,22.87
2019-02-21T05:25:51.840Z,23.15
2019-02-21T05:27:01.571Z,22.62
2019-02-21T05:28:43.432Z,23.70
2019-02-21T05:29:48.557Z,21.35
2019-02-21T05:30:55.603Z,25.60
2019-02-21T05:32:17.140Z,35.13
2019-02-21T05:33:39.479Z,36.90
2019-02-21T05:35:15.112Z,41.68
2019-02-21T05:36:37.453Z,37.65
2019-02-21T05:37:59.783Z,32.03
2019-02-21T05:39:32.767Z,25.55
2019-02-21T05:40:50.057Z,22.00
2019-02-21T05:42:14.167Z,21.68
2019-02-21T05:43:37.272Z,20.30
2019-02-21T05:44:47.617Z,20.97
2019-02-21T05:46:29.602Z,21.48
2019-02-21T05:47:56.158Z,20.65
2019-02-21T05:49:11.539Z,21.33
2019-02-21T05:50:36.489Z,21.77
2019-02-21T05:51:56.528Z,22.52
2019-02-21T05:53:20.395Z,21.90
2019-02-21T05:54:46.710Z,22.42
2019-02-21T05:55:58.607Z,22.20
2019-02-21T05:57:22.399Z,21.40
2019-02-21T05:59:04.350Z,22.40
2019-02-21T06:00:43.459Z,19.80
2019-02-21T06:02:13.128Z,19.95
2019-02-21T06:03:36.185Z,20.00
2019-02-21T06:05:02.703Z,19.45
2019-02-21T06:06:26.592Z,18.87
2019-02-21T06:07:40.153Z,20.45
2019-02-21T06:09:02.031Z,20.82
2019-02-21T06:10:17.642Z,18.15
2019-02-21T06:11:29.534Z,19.55
2019-02-21T06:13:11.970Z,20.65
2019-02-21T06:14:41.529Z,18.20
2019-02-21T06:16:03.880Z,18.45
2019-02-21T06:17:15.369Z,17.90
2019-02-21T06:18:29.626Z,17.30
2019-02-21T06:19:56.062Z,18.27
2019-02-21T06:21:18.495Z,16.87
2019-02-21T06:22:51.524Z,17.12
2019-02-21T06:24:16.028Z,16.42
2019-02-21T06:25:51.133Z,17.32
2019-02-21T06:27:08.234Z,15.95
2019-02-21T06:28:27.294Z,16.70
2019-02-21T06:29:46.377Z,16.65
2019-02-21T06:30:54.711Z,17.37
2019-02-21T06:31:59.595Z,16.95
2019-02-21T06:33:05.577Z,17.55
2019-02-21T06:34:10.668Z,17.90
2019-02-21T06:35:15.473Z,16.35
2019-02-21T06:36:20.286Z,17.92
2019-02-21T06:37:25.209Z,17.25
2019-02-21T06:38:30.124Z,17.48
2019-02-21T06:39:34.885Z,16.73
2019-02-21T06:40:39.716Z,17.65
2019-02-21T06:41:44.621Z,17.77
2019-02-21T06:42:49.531Z,17.37
2019-02-21T06:43:56.764Z,16.90
2019-02-21T06:45:00.726Z,16.57
2019-02-21T06:46:05.731Z,15.65
2019-02-21T06:47:10.564Z,14.87
2019-02-21T06:48:15.873Z,13.60
2019-02-21T06:49:31.743Z,13.58
2019-02-21T06:50:27.432Z,13.78
2019-02-21T06:51:32.293Z,14.73
2019-02-21T06:52:37.217Z,13.68
2019-02-21T06:53:41.984Z,14.38
2019-02-21T06:54:46.870Z,13.40
2019-02-21T06:55:51.891Z,13.35
2019-02-21T06:56:56.719Z,12.65
2019-02-21T06:58:01.704Z,12.88
2019-02-21T06:59:06.733Z,11.60
2019-02-21T07:00:11.825Z,12.88
2019-02-21T07:01:26.462Z,11.50
2019-02-21T07:02:23.280Z,12.15
2019-02-21T07:03:29.070Z,11.08
2019-02-21T07:04:34.150Z,11.53
2019-02-21T07:05:39.100Z,10.72
2019-02-21T07:06:44.216Z,11.65
2019-02-21T07:07:49.902Z,10.03
2019-02-21T07:08:54.968Z,11.93
2019-02-21T07:09:59.765Z,9.98
2019-02-21T07:11:06.458Z,10.38
2019-02-21T07:12:11.242Z,10.08
2019-02-21T07:13:26.200Z,10.15
2019-02-21T07:14:22.687Z,10.65
2019-02-21T07:15:27.656Z,9.68
2019-02-21T07:16:32.553Z,10.50
2019-02-21T07:17:37.315Z,10.18
2019-02-21T07:18:42.301Z,8.40
2019-02-21T07:19:47.176Z,8.80
2019-02-21T07:20:52.040Z,9.05
2019-02-21T07:21:56.961Z,9.25
2019-02-21T07:23:01.921Z,8.88
2019-02-21T07:24:06.684Z,8.58
2019-02-21T07:25:24.741Z,8.63
2019-02-21T07:26:29.686Z,8.55
2019-02-21T07:27:34.561Z,8.05
2019-02-21T07:28:41.564Z,6.87
2019-02-21T07:29:46.112Z,6.80
2019-02-21T07:30:51.658Z,5.95
2019-02-21T07:31:56.586Z,5.70
2019-02-21T07:33:01.465Z,3.98
2019-02-21T07:34:07.152Z,4.25
2019-02-21T07:35:12.302Z,3.67
2019-02-21T07:36:17.425Z,3.70
2019-02-21T07:37:22.472Z,3.40
2019-02-21T07:38:27.489Z,3.30
2019-02-21T07:39:36.155Z,3.20
2019-02-21T07:40:38.826Z,3.75
2019-02-21T07:41:43.630Z,4.20
2019-02-21T07:42:48.537Z,3.85
2019-02-21T07:43:53.488Z,3.83
2019-02-21T07:44:59.728Z,3.50
2019-02-21T07:46:06.869Z,3.42
2019-02-21T07:47:11.321Z,3.95
2019-02-21T07:48:16.056Z,4.37
2019-02-21T07:49:20.825Z,4.60
2019-02-21T07:50:25.731Z,3.62
2019-02-21T07:51:30.689Z,3.92
2019-02-21T07:52:35.724Z,4.45
2019-02-21T07:53:40.697Z,3.30
2019-02-21T07:54:45.752Z,3.10
2019-02-21T07:55:50.686Z,3.40
2019-02-21T07:56:55.697Z,3.55
2019-02-21T07:58:00.661Z,3.87
2019-02-21T07:59:05.660Z,5.45
2019-02-21T08:00:11.417Z,3.72
2019-02-21T08:01:17.413Z,3.08
2019-02-21T08:02:22.797Z,3.60
2019-02-21T08:03:32.117Z,2.98
2019-02-21T08:04:36.915Z,3.12
2019-02-21T08:05:41.031Z,3.02
2019-02-21T08:06:45.880Z,3.00
2019-02-21T08:07:50.838Z,3.00
2019-02-21T08:08:55.715Z,3.00
2019-02-21T08:10:00.732Z,4.05
2019-02-21T08:11:07.113Z,4.35
2019-02-21T08:12:12.218Z,3.70
2019-02-21T08:13:17.206Z,3.10
2019-02-21T08:14:22.163Z,2.80
2019-02-21T08:15:27.836Z,4.97
2019-02-21T08:16:33.124Z,3.80
2019-02-21T08:17:38.020Z,5.25
2019-02-21T08:18:43.034Z,4.40
2019-02-21T08:19:48.166Z,3.08
2019-02-21T08:20:53.172Z,3.60
2019-02-21T08:22:00.070Z,2.87
2019-02-21T08:23:04.630Z,3.45
2019-02-21T08:24:09.668Z,3.62
2019-02-21T08:25:15.045Z,4.00
2019-02-21T08:26:20.310Z,3.25
2019-02-21T08:27:25.514Z,3.80
2019-02-21T08:28:31.274Z,4.37
2019-02-21T08:29:36.557Z,3.00
2019-02-21T08:30:41.440Z,2.87
2019-02-21T08:31:46.958Z,2.98
2019-02-21T08:33:09.503Z,3.60
2019-02-21T08:34:20.804Z,3.80
2019-02-21T08:35:25.956Z,3.10
2019-02-21T08:36:30.805Z,3.47
2019-02-21T08:37:36.094Z,4.37
2019-02-21T08:38:41.166Z,3.47
2019-02-21T08:39:46.159Z,4.03
2019-02-21T08:40:53.232Z,3.30
2019-02-21T08:41:57.577Z,3.67
2019-02-21T08:43:04.077Z,5.37
2019-02-21T08:44:09.294Z,5.00
2019-02-21T08:45:14.389Z,4.72
2019-02-21T08:46:19.501Z,4.97
2019-02-21T08:47:24.550Z,4.95
2019-02-21T08:48:29.656Z,3.90
2019-02-21T08:49:34.518Z,4.53
2019-02-21T08:50:39.377Z,4.40
2019-02-21T08:51:44.203Z,4.65
2019-02-21T08:52:49.137Z,4.20
2019-02-21T08:53:54.260Z,4.30
2019-02-21T08:55:00.440Z,4.05
2019-02-21T08:56:05.683Z,4.28
2019-02-21T08:57:10.707Z,4.37
2019-02-21T08:58:15.525Z,4.80
2019-02-21T08:59:20.692Z,5.12
2019-02-21T09:00:25.817Z,4.58
2019-02-21T09:01:30.750Z,4.45
2019-02-21T09:02:36.055Z,4.60
2019-02-21T09:03:41.245Z,4.83
2019-02-21T09:04:46.116Z,4.83
2019-02-21T09:05:50.941Z,4.60
2019-02-21T09:06:55.722Z,4.78
2019-02-21T09:08:00.972Z,4.75
2019-02-21T09:09:06.705Z,4.72
2019-02-21T09:10:12.277Z,4.67
2019-02-21T09:11:19.609Z,4.90
2019-02-21T09:12:23.882Z,4.78
2019-02-21T09:13:31.830Z,4.08
2019-02-21T09:14:36.688Z,4.50
2019-02-21T09:15:41.682Z,5.00
2019-02-21T09:16:46.653Z,4.53
2019-02-21T09:17:53.998Z,4.28
2019-02-21T09:18:58.569Z,4.87
2019-02-21T09:20:03.636Z,4.95
2019-02-21T09:21:08.612Z,5.33
2019-02-21T09:22:13.492Z,5.20
2019-02-21T09:23:18.376Z,5.30
2019-02-21T09:24:37.520Z,5.17
2019-02-21T09:25:32.474Z,4.87
2019-02-21T09:26:37.284Z,5.08
2019-02-21T09:27:42.236Z,4.87
2019-02-21T09:28:47.209Z,5.12
2019-02-21T09:29:52.178Z,4.53
2019-02-21T09:30:57.004Z,5.42
2019-02-21T09:32:02.009Z,5.28
2019-02-21T09:33:17.028Z,5.45
2019-02-21T09:34:21.069Z,4.67
2019-02-21T09:35:21.541Z,4.65
2019-02-21T09:36:26.304Z,5.53
2019-02-21T09:37:31.266Z,4.92
2019-02-21T09:38:36.187Z,4.92
2019-02-21T09:39:41.382Z,4.40
2019-02-21T09:40:46.338Z,4.55
2019-02-21T09:41:51.258Z,5.25
2019-02-21T09:42:56.206Z,4.33
2019-02-21T09:44:00.960Z,4.70
2019-02-21T09:45:09.359Z,4.10
2019-02-21T09:46:14.191Z,4.45
2019-02-21T09:47:18.981Z,4.33
2019-02-21T09:48:23.718Z,4.62
2019-02-21T09:49:28.525Z,5.33
2019-02-21T09:50:33.272Z,4.92
2019-02-21T09:51:37.969Z,4.97
2019-02-21T09:52:42.704Z,4.90
2019-02-21T09:53:47.605Z,4.67
2019-02-21T09:54:52.389Z,4.53
2019-02-21T09:55:57.457Z,5.15
2019-02-21T09:57:12.501Z,4.37
2019-02-21T09:58:08.758Z,4.37
2019-02-21T09:59:13.505Z,4.50
2019-02-21T10:00:19.776Z,4.30
2019-02-21T10:01:24.550Z,4.90
2019-02-21T10:02:29.370Z,4.90
2019-02-21T10:03:34.044Z,5.05
2019-02-21T10:04:38.824Z,4.25
2019-02-21T10:05:43.543Z,4.58
2019-02-21T10:06:48.292Z,4.30
2019-02-21T10:07:53.011Z,3.87
2019-02-21T10:08:57.738Z,4.87
2019-02-21T10:10:02.471Z,4.85
2019-02-21T10:11:07.277Z,5.50
2019-02-21T10:12:12.022Z,4.47
2019-02-21T10:13:16.766Z,5.10
2019-02-21T10:14:21.665Z,4.30
2019-02-21T10:15:26.571Z,3.90
2019-02-21T10:16:31.294Z,4.35
2019-02-21T10:17:36.206Z,4.15
2019-02-21T10:18:40.983Z,3.72
2019-02-21T10:19:45.794Z,4.37
2019-02-21T10:20:50.750Z,3.58
2019-02-21T10:21:55.710Z,5.15
2019-02-21T10:23:00.610Z,4.78
2019-02-21T10:24:05.364Z,4.60
2019-02-21T10:25:13.951Z,4.58
2019-02-21T10:26:18.761Z,5.40
2019-02-21T10:27:23.485Z,5.55
2019-02-21T10:28:28.261Z,5.35
2019-02-21T10:29:32.988Z,5.15
2019-02-21T10:30:37.831Z,5.67
2019-02-21T10:31:42.549Z,5.37
2019-02-21T10:32:49.443Z,5.83
2019-02-21T10:33:54.298Z,5.08
2019-02-21T10:34:59.078Z,5.22
2019-02-21T10:36:03.904Z,4.42
2019-02-21T10:37:08.780Z,4.37
2019-02-21T10:38:13.569Z,4.78
2019-02-21T10:39:18.304Z,4.50
2019-02-21T10:40:23.179Z,4.95
2019-02-21T10:41:28.014Z,5.20
2019-02-21T10:42:32.744Z,4.72
2019-02-21T10:43:37.473Z,5.08
2019-02-21T10:44:42.354Z,5.10
2019-02-21T10:45:48.090Z,4.35
2019-02-21T10:46:53.098Z,4.47
2019-02-21T10:47:57.814Z,4.22
2019-02-21T10:49:02.528Z,4.53
2019-02-21T10:50:09.455Z,4.90
2019-02-21T10:51:14.500Z,4.85
2019-02-21T10:52:19.456Z,5.10
2019-02-21T10:53:24.257Z,4.47
2019-02-21T10:54:29.090Z,4.78
2019-02-21T10:55:33.869Z,4.15
2019-02-21T10:56:38.697Z,4.87
2019-02-21T10:57:45.315Z,4.83
2019-02-21T10:58:49.789Z,5.30
2019-02-21T10:59:54.532Z,4.95
2019-02-21T11:00:59.278Z,5.75
2019-02-21T11:02:04.107Z,5.22
2019-02-21T11:03:08.809Z,5.10
2019-02-21T11:04:13.593Z,5.33
2019-02-21T11:05:18.401Z,5.33
2019-02-21T11:06:23.262Z,5.87
2019-02-21T11:07:27.951Z,5.45
2019-02-21T11:08:32.748Z,5.53
2019-02-21T11:09:37.463Z,5.42
2019-02-21T11:10:42.243Z,5.87
2019-02-21T11:11:47.147Z,5.67
2019-02-21T11:12:51.843Z,5.58
2019-02-21T11:13:56.541Z,5.22
2019-02-21T11:15:01.253Z,5.83
2019-02-21T11:16:05.958Z,6.15
2019-02-21T11:17:10.847Z,5.65
2019-02-21T11:18:15.597Z,4.72
2019-02-21T11:19:20.302Z,5.70
2019-02-21T11:20:24.991Z,5.10
2019-02-21T11:21:29.730Z,5.37
2019-02-21T11:22:34.481Z,6.15
2019-02-21T11:23:39.521Z,7.00
2019-02-21T11:24:44.450Z,5.72
2019-02-21T11:25:49.290Z,5.85
2019-02-21T11:26:54.101Z,5.42
2019-02-21T11:27:59.103Z,5.28
2019-02-21T11:29:03.883Z,5.35
2019-02-21T11:30:12.349Z,5.25
2019-02-21T11:31:17.142Z,6.00
2019-02-21T11:32:21.842Z,7.22
2019-02-21T11:33:26.607Z,6.80
2019-02-21T11:34:31.385Z,5.55
2019-02-21T11:35:36.123Z,4.92
2019-02-21T11:36:40.859Z,5.00
2019-02-21T11:37:47.176Z,5.20
2019-02-21T11:38:52.101Z,5.03
2019-02-21T11:39:56.910Z,5.28
2019-02-21T11:41:01.697Z,4.92
2019-02-21T11:42:09.403Z,6.05
2019-02-21T11:43:14.279Z,7.22
2019-02-21T11:44:19.111Z,4.80
2019-02-21T11:45:23.913Z,4.37
2019-02-21T11:46:28.760Z,4.65
2019-02-21T11:47:33.550Z,4.15
2019-02-21T11:48:38.351Z,4.42
2019-02-21T11:49:43.228Z,4.97
2019-02-21T11:50:48.141Z,5.70
2019-02-21T11:51:52.871Z,5.33
2019-02-21T11:52:57.675Z,5.40
2019-02-21T11:54:02.462Z,4.00
2019-02-21T11:55:08.443Z,4.25
2019-02-21T11:56:15.646Z,4.60
2019-02-21T11:57:19.995Z,4.60
2019-02-21T11:58:24.831Z,4.17
2019-02-21T11:59:29.789Z,4.53
2019-02-21T12:00:34.911Z,4.40
2019-02-21T12:01:39.893Z,3.95
2019-02-21T12:02:44.668Z,4.78
2019-02-21T12:03:49.540Z,5.10
2019-02-21T12:04:56.139Z,4.15
2019-02-21T12:06:01.004Z,3.90
2019-02-21T12:07:05.785Z,4.72
2019-02-21T12:08:11.131Z,4.60
2019-02-21T12:09:16.286Z,4.03
2019-02-21T12:10:21.917Z,3.92
2019-02-21T12:11:27.352Z,3.72
2019-02-21T12:12:32.629Z,4.20
2019-02-21T12:13:37.686Z,4.33
2019-02-21T12:14:42.560Z,4.65
2019-02-21T12:15:47.687Z,5.47
2019-02-21T12:16:52.696Z,3.65
2019-02-21T12:17:57.886Z,3.95
2019-02-21T12:19:02.999Z,3.58
2019-02-21T12:20:10.287Z,3.95
2019-02-21T12:21:15.018Z,3.83
2019-02-21T12:22:19.727Z,4.10
2019-02-21T12:23:24.457Z,3.85
2019-02-21T12:24:29.227Z,4.15
2019-02-21T12:25:34.007Z,3.85
2019-02-21T12:26:38.764Z,3.67
2019-02-21T12:27:43.651Z,3.47
2019-02-21T12:28:48.413Z,3.98
2019-02-21T12:29:53.267Z,4.22
2019-02-21T12:30:58.083Z,4.50
2019-02-21T12:32:02.938Z,4.33
2019-02-21T12:33:07.938Z,4.30
2019-02-21T12:34:12.658Z,5.22
2019-02-21T12:35:28.719Z,4.40
2019-02-21T12:36:24.046Z,4.17
2019-02-21T12:37:28.762Z,4.42
2019-02-21T12:38:33.546Z,4.67
2019-02-21T12:39:38.295Z,4.92
2019-02-21T12:40:43.097Z,5.10
2019-02-21T12:41:47.907Z,3.75
2019-02-21T12:42:52.737Z,3.92
2019-02-21T12:43:57.479Z,3.80
2019-02-21T12:45:02.251Z,3.33
2019-02-21T12:46:07.061Z,3.55
2019-02-21T12:47:11.804Z,3.77
2019-02-21T12:48:16.530Z,3.83
2019-02-21T12:49:21.317Z,3.75
2019-02-21T12:50:26.066Z,4.15
2019-02-21T12:51:30.846Z,5.30
2019-02-21T12:52:35.737Z,4.60
2019-02-21T12:53:40.565Z,4.72
2019-02-21T12:54:45.733Z,5.22
2019-02-21T12:55:50.544Z,4.50
2019-02-21T12:56:55.653Z,4.42
2019-02-21T12:58:01.015Z,3.77
2019-02-21T12:59:06.323Z,3.90
2019-02-21T13:00:16.857Z,4.00
2019-02-21T13:01:21.841Z,3.70
2019-02-21T13:02:27.164Z,4.40
2019-02-21T13:03:32.252Z,3.67
2019-02-21T13:04:37.525Z,3.70
2019-02-21T13:05:44.556Z,3.52
2019-02-21T13:06:48.918Z,3.30
2019-02-21T13:07:53.840Z,3.55
2019-02-21T13:08:58.861Z,3.55
2019-02-21T13:10:03.884Z,3.80
2019-02-21T13:11:08.879Z,3.35
2019-02-21T13:12:13.828Z,3.22
2019-02-21T13:13:18.863Z,3.70
2019-02-21T13:14:24.000Z,3.87
2019-02-21T13:15:28.968Z,4.10
2019-02-21T13:16:33.929Z,4.30
2019-02-21T13:17:38.768Z,4.12
2019-02-21T13:18:43.666Z,4.67
2019-02-21T13:19:48.578Z,4.50
2019-02-21T13:20:53.320Z,4.65
2019-02-21T13:21:58.416Z,4.42
2019-02-21T13:23:03.337Z,4.55
2019-02-21T13:24:08.387Z,5.17
2019-02-21T13:25:13.522Z,5.28
2019-02-21T13:26:18.316Z,4.87
2019-02-21T13:27:23.434Z,5.00
2019-02-21T13:28:28.262Z,4.40
2019-02-21T13:29:33.205Z,4.87
2019-02-21T13:30:38.141Z,4.78
2019-02-21T13:31:42.956Z,4.72
2019-02-21T13:32:47.924Z,5.20
2019-02-21T13:33:52.861Z,5.28
2019-02-21T13:34:57.710Z,5.15
2019-02-21T13:36:02.691Z,5.53
2019-02-21T13:37:07.888Z,5.75
2019-02-21T13:38:12.767Z,6.53
2019-02-21T13:39:17.720Z,6.40
2019-02-21T13:40:22.642Z,6.92
2019-02-21T13:41:27.889Z,7.20
2019-02-21T13:42:33.121Z,6.87
2019-02-21T13:43:38.490Z,6.53
2019-02-21T13:44:43.475Z,7.03
2019-02-21T13:45:48.341Z,6.62
2019-02-21T13:46:53.139Z,6.42
2019-02-21T13:47:58.064Z,7.42
2019-02-21T13:49:03.324Z,6.65
2019-02-21T13:50:11.277Z,6.58
2019-02-21T13:51:16.109Z,6.37
2019-02-21T13:52:21.037Z,6.45
2019-02-21T13:53:25.911Z,5.67
2019-02-21T13:54:30.749Z,5.95
2019-02-21T13:55:35.648Z,5.95
2019-02-21T13:56:40.397Z,6.33
2019-02-21T13:57:45.253Z,6.50
2019-02-21T13:58:50.188Z,6.00
2019-02-21T13:59:55.166Z,6.45
2019-02-21T14:00:59.947Z,5.80
2019-02-21T14:02:04.804Z,6.12
2019-02-21T14:03:09.813Z,5.80
2019-02-21T14:04:14.736Z,5.67
2019-02-21T14:05:19.714Z,5.87
2019-02-21T14:06:24.638Z,5.80
2019-02-21T14:07:29.481Z,6.30
2019-02-21T14:08:34.433Z,7.22
2019-02-21T14:09:39.546Z,6.90
2019-02-21T14:10:44.456Z,6.30
2019-02-21T14:11:49.309Z,7.28
2019-02-21T14:12:54.393Z,7.28
2019-02-21T14:13:59.177Z,7.92
2019-02-21T14:15:04.330Z,7.78
2019-02-21T14:16:09.280Z,8.88
2019-02-21T14:17:15.205Z,9.05
2019-02-21T14:18:20.329Z,9.48
2019-02-21T14:19:25.153Z,8.90
2019-02-21T14:20:30.072Z,10.10
2019-02-21T14:21:34.905Z,9.98
2019-02-21T14:22:39.933Z,10.15
2019-02-21T14:23:45.005Z,11.25
2019-02-21T14:24:49.890Z,9.45
2019-02-21T14:25:54.676Z,10.15
2019-02-21T14:26:59.647Z,9.90